EGLC/LCY METAR and TAF weather

Enter ICAO airport designator
Station Type Date Time Source
EGLC METAR 2022/08/16 18:50 UTC NOAA

EGLC 161850Z AUTO 06005KT 9999 NCD 21/17 Q1008


Station Type Date Time Source
EGLC Decoded METAR 2022/08/16 18:50 UTC NOAA

London City Airport, United Kingdom (EGLC) 51-30N 000-30W
Aug 16, 2022 - 02:50 PM EDT / 2022.08.16 1850 UTC
Wind: from the ENE (060 degrees) at 6 MPH (5 KT):0
Visibility: greater than 7 mile(s):0
Temperature: 69 F (21 C)
Dew Point: 62 F (17 C)
Relative Humidity: 77%
Pressure (altimeter): 29.77 in. Hg (1008 hPa)
ob: EGLC 161850Z AUTO 06005KT 9999 NCD 21/17 Q1008
cycle: 19

Station Type Date Time Source
EGLC TAF 2022/06/16 00:09 UTC NOAA

TAF EGLC 162252Z 1700/1724 20008KT CAVOK PROB30
TEMPO 1712/1716 22015G25KT

Example: see airport list